createdAt,value
2023-02-12T00:00:10.448Z,20.70
2023-02-12T00:02:46.874Z,19.85
2023-02-12T00:05:17.781Z,19.33
2023-02-12T00:07:50.723Z,19.65
2023-02-12T00:10:21.142Z,20.25
2023-02-12T00:12:51.394Z,17.88
2023-02-12T00:15:21.752Z,18.35
2023-02-12T00:17:51.951Z,18.50
2023-02-12T00:20:22.208Z,18.08
2023-02-12T00:22:54.697Z,17.50
2023-02-12T00:25:24.618Z,16.92
2023-02-12T00:27:54.787Z,17.25
2023-02-12T00:30:25.021Z,17.95
2023-02-12T00:32:57.938Z,16.83
2023-02-12T00:35:28.215Z,18.33
2023-02-12T00:38:01.694Z,17.77
2023-02-12T00:40:31.937Z,17.98
2023-02-12T00:43:02.145Z,18.38
2023-02-12T00:45:32.410Z,17.48
2023-02-12T00:48:02.736Z,18.15
2023-02-12T00:50:33.009Z,15.45
2023-02-12T00:53:06.521Z,16.83
2023-02-12T00:55:36.906Z,16.35
2023-02-12T00:58:07.275Z,17.55
2023-02-12T01:00:37.558Z,18.02
2023-02-12T01:03:08.304Z,17.90
2023-02-12T01:05:38.702Z,18.13
2023-02-12T01:08:11.401Z,18.08
2023-02-12T01:10:41.696Z,18.15
2023-02-12T01:13:15.910Z,18.02
2023-02-12T01:15:46.477Z,17.67
2023-02-12T01:18:16.900Z,17.92
2023-02-12T01:20:47.189Z,17.75
2023-02-12T01:23:20.265Z,19.15
2023-02-12T01:25:50.534Z,18.05
2023-02-12T01:28:20.878Z,19.38
2023-02-12T01:30:50.840Z,19.42
2023-02-12T01:33:21.087Z,19.67
2023-02-12T01:35:50.960Z,19.30
2023-02-12T01:38:23.742Z,21.05
2023-02-12T01:40:53.643Z,21.27
2023-02-12T01:43:23.531Z,22.15
2023-02-12T01:45:58.013Z,22.58
2023-02-12T01:48:30.730Z,20.00
2023-02-12T01:51:02.530Z,21.25
2023-02-12T01:53:39.745Z,21.50
2023-02-12T01:56:10.764Z,19.60
2023-02-12T01:58:43.541Z,21.08
2023-02-12T02:01:18.330Z,22.08
2023-02-12T02:03:50.033Z,20.38
2023-02-12T02:06:25.884Z,20.88
2023-02-12T02:08:59.581Z,20.90
2023-02-12T02:11:42.150Z,21.30
2023-02-12T02:14:24.594Z,21.38
2023-02-12T02:17:04.031Z,20.15
2023-02-12T02:19:48.795Z,21.23
2023-02-12T02:25:36.834Z,19.80
2023-02-12T02:28:50.260Z,20.27
2023-02-12T02:31:29.309Z,21.90
2023-02-12T02:34:05.245Z,20.25
2023-02-12T02:36:54.090Z,19.77
2023-02-12T02:39:35.948Z,21.30
2023-02-12T02:42:13.034Z,20.08
2023-02-12T02:44:58.270Z,20.88
2023-02-12T02:47:36.192Z,21.15
2023-02-12T02:50:11.123Z,23.27
2023-02-12T02:52:45.941Z,21.98
2023-02-12T02:55:20.850Z,20.40
2023-02-12T02:57:56.149Z,22.92
2023-02-12T03:00:34.595Z,20.75
2023-02-12T03:03:14.725Z,21.50
2023-02-12T03:05:47.728Z,20.63
2023-02-12T03:08:24.412Z,22.23
2023-02-12T03:10:58.213Z,17.52
2023-02-12T03:13:31.487Z,17.45
2023-02-12T03:16:05.977Z,17.90
2023-02-12T03:21:15.865Z,17.55
2023-02-12T03:23:52.666Z,18.15
2023-02-12T03:26:27.845Z,19.65
2023-02-12T03:28:58.214Z,18.33
2023-02-12T03:31:40.290Z,18.38
2023-02-12T03:34:21.306Z,18.75
2023-02-12T03:36:57.776Z,19.15
2023-02-12T03:39:33.844Z,19.15
2023-02-12T03:42:08.572Z,20.83
2023-02-12T03:44:49.604Z,21.05
2023-02-12T03:47:28.605Z,21.50
2023-02-12T03:50:06.133Z,23.10
2023-02-12T03:52:36.871Z,22.25
2023-02-12T03:55:08.548Z,21.08
2023-02-12T03:57:43.869Z,22.13
2023-02-12T04:00:17.447Z,18.98
2023-02-12T04:02:50.751Z,21.35
2023-02-12T04:05:26.084Z,23.00
2023-02-12T04:08:00.676Z,20.83
2023-02-12T04:10:38.534Z,21.10
2023-02-12T04:13:19.838Z,21.95
2023-02-12T04:16:05.288Z,22.05
2023-02-12T04:18:41.940Z,22.05
2023-02-12T04:21:20.592Z,21.25
2023-02-12T04:23:58.370Z,21.08
2023-02-12T04:26:39.354Z,20.30
2023-02-12T04:29:20.561Z,21.95
2023-02-12T04:31:57.117Z,20.58
2023-02-12T04:34:31.608Z,21.27
2023-02-12T04:39:40.394Z,20.90
2023-02-12T04:42:10.589Z,20.83
2023-02-12T04:44:45.667Z,23.15
2023-02-12T04:47:16.265Z,22.23
2023-02-12T04:49:46.857Z,19.73
2023-02-12T04:52:19.410Z,20.75
2023-02-12T04:54:49.542Z,20.75
2023-02-12T04:57:19.878Z,22.10
2023-02-12T04:59:50.138Z,22.65
2023-02-12T05:02:20.602Z,21.05
2023-02-12T05:04:52.320Z,22.63
2023-02-12T05:07:24.968Z,22.38
2023-02-12T05:09:55.360Z,23.92
2023-02-12T05:12:25.705Z,21.42
2023-02-12T05:14:55.941Z,22.67
2023-02-12T05:17:26.817Z,21.08
2023-02-12T05:19:57.223Z,22.08
2023-02-12T05:22:30.018Z,22.33
2023-02-12T05:25:00.487Z,22.17
2023-02-12T05:27:30.768Z,23.63
2023-02-12T05:30:01.064Z,22.38
2023-02-12T05:32:38.305Z,21.70
2023-02-12T05:35:10.097Z,24.65
2023-02-12T05:37:42.723Z,21.98
2023-02-12T05:40:14.275Z,20.88
2023-02-12T05:42:44.254Z,20.85
2023-02-12T05:45:14.183Z,21.10
2023-02-12T05:47:44.088Z,21.92
2023-02-12T05:50:14.442Z,21.92
2023-02-12T05:52:46.929Z,22.27
2023-02-12T05:55:17.005Z,22.98
2023-02-12T05:57:46.934Z,21.38
2023-02-12T06:00:18.211Z,25.13
2023-02-12T06:02:48.381Z,22.75
2023-02-12T06:05:18.471Z,24.70
2023-02-12T06:07:51.019Z,25.50
2023-02-12T06:10:21.433Z,24.90
2023-02-12T06:12:55.946Z,23.50
2023-02-12T06:15:25.964Z,19.30
2023-02-12T06:17:55.867Z,20.17
2023-02-12T06:20:25.890Z,19.92
2023-02-12T06:22:58.493Z,22.70
2023-02-12T06:25:28.624Z,22.75
2023-02-12T06:27:58.666Z,23.92
2023-02-12T06:30:28.660Z,21.83
2023-02-12T06:32:58.615Z,22.73
2023-02-12T06:35:28.564Z,22.55
2023-02-12T06:38:01.209Z,23.60
2023-02-12T06:40:31.174Z,25.75
2023-02-12T06:43:01.189Z,24.33
2023-02-12T06:45:31.050Z,25.50
2023-02-12T06:48:01.179Z,27.45
2023-02-12T06:50:31.713Z,25.55
2023-02-12T06:53:04.225Z,30.15
2023-02-12T06:55:34.324Z,28.23
2023-02-12T06:58:04.240Z,28.23
2023-02-12T07:00:34.173Z,28.30
2023-02-12T07:03:04.157Z,31.23
2023-02-12T07:05:37.921Z,28.70
2023-02-12T07:08:10.505Z,28.70
2023-02-12T07:10:40.437Z,29.10
2023-02-12T07:13:10.354Z,28.65
2023-02-12T07:15:42.404Z,30.60
2023-02-12T07:18:12.352Z,29.80
2023-02-12T07:20:42.299Z,29.50
2023-02-12T07:23:16.937Z,30.90
2023-02-12T07:25:46.850Z,30.40
2023-02-12T07:28:16.866Z,27.08
2023-02-12T07:30:46.910Z,29.10
2023-02-12T07:33:17.000Z,28.20
2023-02-12T07:35:46.985Z,30.40
2023-02-12T07:38:19.504Z,26.67
2023-02-12T07:40:49.512Z,28.08
2023-02-12T07:43:19.564Z,26.95
2023-02-12T07:45:49.514Z,26.48
2023-02-12T07:48:19.467Z,25.10
2023-02-12T07:50:49.407Z,29.00
2023-02-12T07:53:21.887Z,30.73
2023-02-12T07:55:51.808Z,26.90
2023-02-12T07:58:21.752Z,27.42
2023-02-12T08:00:52.782Z,27.95
2023-02-12T08:03:22.668Z,27.85
2023-02-12T08:05:52.572Z,28.70
2023-02-12T08:08:25.179Z,29.02
2023-02-12T08:10:55.142Z,28.65
2023-02-12T08:13:24.997Z,29.13
2023-02-12T08:16:03.033Z,28.88
2023-02-12T08:18:34.338Z,28.95
2023-02-12T08:21:06.115Z,30.48
2023-02-12T08:23:40.004Z,32.60
2023-02-12T08:26:14.711Z,30.02
2023-02-12T08:28:46.697Z,29.50
2023-02-12T08:31:20.144Z,28.25
2023-02-12T08:33:51.532Z,30.27
2023-02-12T08:36:26.947Z,29.75
2023-02-12T08:39:01.648Z,30.50
2023-02-12T08:41:33.032Z,29.80
2023-02-12T08:44:04.847Z,28.85
2023-02-12T08:46:37.174Z,29.15
2023-02-12T08:49:10.205Z,30.00
2023-02-12T08:51:43.181Z,29.48
2023-02-12T08:54:17.557Z,28.85
2023-02-12T08:56:48.106Z,28.48
2023-02-12T08:59:18.998Z,28.27
2023-02-12T09:01:48.987Z,27.23
2023-02-12T09:04:22.838Z,25.10
2023-02-12T09:06:53.857Z,26.65
2023-02-12T09:09:26.590Z,24.50
2023-02-12T09:11:56.539Z,23.77
2023-02-12T09:14:26.471Z,25.20
2023-02-12T09:16:58.352Z,24.10
2023-02-12T09:19:28.533Z,27.02
2023-02-12T09:21:59.333Z,26.20
2023-02-12T09:24:32.407Z,25.63
2023-02-12T09:27:02.272Z,24.65
2023-02-12T09:29:32.230Z,25.95
2023-02-12T09:32:04.887Z,26.70
2023-02-12T09:34:37.906Z,27.48
2023-02-12T09:37:07.815Z,26.77
2023-02-12T09:39:40.763Z,26.00
2023-02-12T09:42:32.372Z,23.50
2023-02-12T09:45:09.890Z,25.60
2023-02-12T09:47:51.422Z,23.17
2023-02-12T09:50:34.227Z,22.92
2023-02-12T09:53:05.046Z,18.25
2023-02-12T09:55:38.688Z,18.98
2023-02-12T09:58:17.104Z,19.85
2023-02-12T10:00:46.964Z,17.42
2023-02-12T10:03:19.983Z,16.92
2023-02-12T10:05:52.890Z,17.85
2023-02-12T10:08:44.330Z,18.77
2023-02-12T10:11:46.415Z,15.57
2023-02-12T10:14:38.487Z,15.55
2023-02-12T10:17:15.920Z,16.30
2023-02-12T10:20:07.398Z,16.02
2023-02-12T10:22:56.514Z,16.67
2023-02-12T10:25:32.118Z,16.10
2023-02-12T10:28:12.168Z,16.17
2023-02-12T10:30:48.059Z,18.35
2023-02-12T10:33:22.326Z,17.75
2023-02-12T10:35:56.182Z,18.77
2023-02-12T10:38:30.842Z,16.00
2023-02-12T10:43:35.099Z,15.65
2023-02-12T10:46:05.351Z,15.40
2023-02-12T10:48:38.183Z,16.55
2023-02-12T10:51:26.407Z,16.10
2023-02-12T10:53:56.318Z,15.80
2023-02-12T10:56:29.409Z,15.88
2023-02-12T10:59:03.068Z,16.17
2023-02-12T11:01:36.685Z,13.52
2023-02-12T11:04:23.978Z,13.48
2023-02-12T11:07:03.592Z,14.70
2023-02-12T11:09:40.781Z,13.90
2023-02-12T11:12:35.844Z,13.75
2023-02-12T11:17:43.489Z,14.40
2023-02-12T11:20:25.939Z,14.07
2023-02-12T11:22:58.568Z,13.90
2023-02-12T11:25:31.162Z,11.90
2023-02-12T11:28:08.094Z,13.65
2023-02-12T11:30:52.392Z,12.90
2023-02-12T11:33:29.110Z,12.48
2023-02-12T11:36:02.706Z,13.93
2023-02-12T11:38:36.837Z,15.00
2023-02-12T11:41:24.005Z,16.02
2023-02-12T11:43:54.427Z,12.77
2023-02-12T11:46:29.956Z,14.65
2023-02-12T11:49:01.933Z,12.82
2023-02-12T11:51:34.350Z,12.50
2023-02-12T11:54:06.551Z,14.88
2023-02-12T11:56:48.599Z,14.50
2023-02-12T11:59:33.777Z,16.13
2023-02-12T12:02:17.232Z,12.05
2023-02-12T12:04:52.453Z,14.98
2023-02-12T12:07:27.394Z,15.10
2023-02-12T12:10:01.761Z,14.40
2023-02-12T12:18:11.444Z,13.32
2023-02-12T12:20:48.378Z,13.43
2023-02-12T12:23:23.224Z,12.80
2023-02-12T12:25:57.225Z,12.98
2023-02-12T12:28:36.570Z,13.20
2023-02-12T12:31:12.567Z,11.75
2023-02-12T12:33:47.944Z,14.00
2023-02-12T12:36:53.404Z,13.43
2023-02-12T12:39:32.006Z,11.48
2023-02-12T12:42:40.669Z,14.32
2023-02-12T12:45:27.889Z,14.25
2023-02-12T12:48:12.897Z,13.60
2023-02-12T12:51:02.609Z,12.82
2023-02-12T12:53:48.465Z,12.77
2023-02-12T12:56:37.944Z,13.05
2023-02-12T12:59:28.629Z,12.48
2023-02-12T13:02:21.975Z,13.15
2023-02-12T13:05:20.883Z,13.35
2023-02-12T13:08:01.676Z,14.40
2023-02-12T13:10:36.343Z,12.93
2023-02-12T13:13:12.101Z,13.43
2023-02-12T13:15:47.637Z,13.63
2023-02-12T13:18:22.394Z,15.35
2023-02-12T13:21:00.364Z,13.23
2023-02-12T13:23:38.691Z,14.30
2023-02-12T13:26:13.025Z,14.88
2023-02-12T13:31:33.803Z,13.52
2023-02-12T13:34:07.634Z,13.48
2023-02-12T13:36:39.759Z,13.63
2023-02-12T13:39:18.731Z,15.27
2023-02-12T13:41:51.621Z,12.93
2023-02-12T13:44:31.413Z,13.30
2023-02-12T13:47:07.289Z,14.25
2023-02-12T13:49:43.149Z,13.20
2023-02-12T13:52:16.442Z,13.40
2023-02-12T13:55:02.909Z,13.32
2023-02-12T13:57:33.133Z,13.43
2023-02-12T14:00:08.346Z,13.57
2023-02-12T14:02:50.334Z,11.98
2023-02-12T14:05:31.904Z,12.70
2023-02-12T14:08:05.788Z,12.45
2023-02-12T14:10:40.059Z,13.20
2023-02-12T14:13:15.616Z,13.75
2023-02-12T14:15:47.265Z,12.55
2023-02-12T14:18:31.770Z,13.25
2023-02-12T14:21:17.258Z,11.23
2023-02-12T14:23:50.861Z,11.32
2023-02-12T14:26:26.756Z,11.07
2023-02-12T14:28:58.380Z,10.77
2023-02-12T14:31:46.560Z,10.88
2023-02-12T14:34:31.921Z,10.95
2023-02-12T14:37:15.759Z,10.52
2023-02-12T14:39:46.063Z,10.90
2023-02-12T14:42:31.331Z,12.55
2023-02-12T14:45:04.174Z,10.93
2023-02-12T14:47:52.824Z,11.80
2023-02-12T14:50:24.031Z,11.63
2023-02-12T14:52:56.741Z,12.80
2023-02-12T14:55:30.638Z,12.80
2023-02-12T14:58:04.144Z,12.82
2023-02-12T15:00:39.136Z,14.50
2023-02-12T15:03:22.436Z,13.80
2023-02-12T15:05:58.982Z,14.23
2023-02-12T15:08:38.506Z,14.80
2023-02-12T15:11:17.463Z,16.33
2023-02-12T15:13:51.713Z,16.27
2023-02-12T15:16:32.544Z,15.38
2023-02-12T15:19:08.660Z,16.92
2023-02-12T15:21:39.301Z,14.88
2023-02-12T15:24:10.536Z,15.57
2023-02-12T15:26:43.526Z,15.82
2023-02-12T15:29:22.526Z,14.98
2023-02-12T15:32:00.304Z,15.45
2023-02-12T15:34:32.217Z,13.48
2023-02-12T15:37:03.672Z,17.02
2023-02-12T15:39:43.682Z,15.20
2023-02-12T15:42:29.125Z,16.90
2023-02-12T15:45:05.871Z,15.93
2023-02-12T15:47:38.770Z,14.68
2023-02-12T15:50:10.216Z,14.48
2023-02-12T15:52:42.066Z,15.60
2023-02-12T15:55:18.228Z,16.15
2023-02-12T15:57:52.373Z,17.48
2023-02-12T16:00:32.002Z,17.23
2023-02-12T16:03:04.878Z,15.60
2023-02-12T16:05:36.095Z,14.40
2023-02-12T16:08:06.638Z,14.98
2023-02-12T16:10:37.128Z,15.23
2023-02-12T16:13:07.527Z,15.60
2023-02-12T16:15:40.324Z,16.48
2023-02-12T16:18:26.461Z,16.52
2023-02-12T16:21:05.696Z,16.67
2023-02-12T16:23:36.147Z,15.75
2023-02-12T16:26:06.678Z,16.38
2023-02-12T16:28:36.961Z,16.02
2023-02-12T16:31:11.720Z,15.73
2023-02-12T16:33:49.522Z,15.35
2023-02-12T16:36:30.780Z,16.50
2023-02-12T16:39:05.588Z,15.55
2023-02-12T16:41:41.031Z,16.48
2023-02-12T16:44:26.304Z,17.95
2023-02-12T16:46:57.690Z,17.65
2023-02-12T16:49:30.778Z,16.50
2023-02-12T16:52:23.142Z,16.20
2023-02-12T16:54:53.477Z,16.45
2023-02-12T16:57:23.665Z,15.75
2023-02-12T16:59:53.935Z,17.40
2023-02-12T17:02:24.192Z,17.95
2023-02-12T17:05:00.896Z,17.30
2023-02-12T17:07:31.236Z,16.60
2023-02-12T17:10:01.483Z,17.83
2023-02-12T17:12:31.813Z,17.58
2023-02-12T17:15:02.118Z,16.60
2023-02-12T17:17:32.737Z,17.40
2023-02-12T17:20:05.556Z,18.08
2023-02-12T17:22:36.547Z,18.88
2023-02-12T17:25:06.998Z,18.67
2023-02-12T17:27:38.216Z,18.20
2023-02-12T17:30:09.212Z,16.35
2023-02-12T17:32:39.471Z,19.10
2023-02-12T17:35:12.606Z,16.67
2023-02-12T17:37:42.617Z,18.38
2023-02-12T17:40:14.003Z,18.25
2023-02-12T17:42:44.274Z,17.40
2023-02-12T17:45:14.160Z,17.40
2023-02-12T17:47:44.083Z,17.50
2023-02-12T17:50:18.192Z,18.45
2023-02-12T17:52:48.653Z,18.83
2023-02-12T17:55:18.797Z,19.13
2023-02-12T17:57:49.045Z,18.08
2023-02-12T18:00:20.068Z,18.85
2023-02-12T18:02:50.319Z,18.63
2023-02-12T18:05:22.895Z,18.58
2023-02-12T18:07:53.067Z,18.35
2023-02-12T18:10:23.307Z,17.73
2023-02-12T18:12:53.488Z,18.92
2023-02-12T18:15:23.841Z,17.58
2023-02-12T18:17:54.159Z,19.52
2023-02-12T18:20:26.877Z,18.85
2023-02-12T18:22:57.790Z,18.23
2023-02-12T18:25:28.109Z,18.20
2023-02-12T18:28:01.737Z,18.85
2023-02-12T18:30:32.144Z,18.92
2023-02-12T18:33:02.445Z,17.70
2023-02-12T18:35:36.896Z,18.80
2023-02-12T18:40:37.264Z,18.67
2023-02-12T18:43:07.522Z,20.45
2023-02-12T18:45:37.693Z,20.30
2023-02-12T18:48:09.434Z,19.50
2023-02-12T18:50:42.556Z,20.70
2023-02-12T18:53:13.081Z,23.67
2023-02-12T18:55:43.040Z,20.48
2023-02-12T18:58:12.983Z,22.65
2023-02-12T19:00:43.727Z,20.38
2023-02-12T19:03:14.378Z,19.23
2023-02-12T19:05:47.222Z,19.08
2023-02-12T19:08:17.840Z,19.73
2023-02-12T19:10:49.468Z,19.80
2023-02-12T19:13:19.448Z,18.45
2023-02-12T19:15:49.690Z,18.55
2023-02-12T19:18:19.998Z,21.05
2023-02-12T19:20:52.728Z,19.48
2023-02-12T19:23:22.908Z,20.05
2023-02-12T19:25:53.200Z,19.88
2023-02-12T19:28:23.218Z,19.05
2023-02-12T19:30:53.541Z,18.45
2023-02-12T19:33:23.802Z,19.17
2023-02-12T19:35:56.361Z,22.08
2023-02-12T19:38:26.259Z,19.95
2023-02-12T19:41:04.964Z,21.98
2023-02-12T19:43:35.270Z,21.20
2023-02-12T19:46:05.574Z,20.95
2023-02-12T19:48:36.009Z,18.40
2023-02-12T19:51:10.151Z,18.80
2023-02-12T19:53:40.223Z,19.67
2023-02-12T19:56:10.847Z,18.02
2023-02-12T19:58:41.597Z,20.30
2023-02-12T20:01:12.769Z,19.75
2023-02-12T20:03:43.229Z,18.33
2023-02-12T20:06:17.839Z,18.20
2023-02-12T20:08:47.845Z,17.80
2023-02-12T20:11:20.300Z,22.00
2023-02-12T20:13:50.584Z,22.02
2023-02-12T20:16:22.951Z,18.38
2023-02-12T20:18:56.394Z,17.40
2023-02-12T20:21:31.189Z,16.70
2023-02-12T20:24:02.119Z,16.30
2023-02-12T20:26:33.219Z,14.65
2023-02-12T20:29:05.256Z,12.45
2023-02-12T20:31:39.888Z,12.02
2023-02-12T20:36:45.790Z,12.02
2023-02-12T20:39:17.829Z,12.48
2023-02-12T20:41:48.211Z,11.32
2023-02-12T20:44:21.068Z,11.55
2023-02-12T20:46:56.485Z,12.05
2023-02-12T20:49:27.782Z,11.18
2023-02-12T20:52:00.336Z,11.02
2023-02-12T20:54:30.569Z,12.13
2023-02-12T20:57:06.338Z,10.98
2023-02-12T20:59:36.297Z,11.07
2023-02-12T21:02:06.526Z,11.23
2023-02-12T21:04:36.568Z,10.43
2023-02-12T21:07:09.035Z,10.60
2023-02-12T21:09:38.919Z,10.48
2023-02-12T21:12:09.197Z,9.77
2023-02-12T21:14:39.372Z,9.48
2023-02-12T21:17:09.246Z,10.60
2023-02-12T21:19:39.138Z,9.63
2023-02-12T21:22:11.681Z,10.25
2023-02-12T21:24:41.586Z,9.25
2023-02-12T21:27:11.899Z,7.53
2023-02-12T21:29:41.772Z,7.90
2023-02-12T21:32:11.825Z,6.07
2023-02-12T21:34:42.296Z,6.30
2023-02-12T21:37:15.135Z,6.38
2023-02-12T21:39:45.300Z,7.28
2023-02-12T21:42:15.483Z,6.22
2023-02-12T21:44:45.798Z,7.05
2023-02-12T21:47:15.700Z,7.95
2023-02-12T21:49:46.012Z,7.57
2023-02-12T21:52:18.640Z,7.53
2023-02-12T21:54:48.847Z,7.53
2023-02-12T21:57:21.892Z,8.38
2023-02-12T21:59:52.108Z,7.82
2023-02-12T22:02:22.395Z,7.72
2023-02-12T22:04:52.621Z,6.72
2023-02-12T22:07:25.170Z,6.15
2023-02-12T22:09:58.430Z,6.57
2023-02-12T22:12:32.259Z,6.78
2023-02-12T22:15:02.250Z,6.50
2023-02-12T22:17:34.925Z,6.32
2023-02-12T22:20:05.073Z,7.10
2023-02-12T22:22:37.676Z,6.22
2023-02-12T22:25:08.542Z,6.18
2023-02-12T22:27:38.616Z,5.85
2023-02-12T22:30:10.153Z,5.55
2023-02-12T22:32:40.123Z,5.80
2023-02-12T22:35:10.952Z,5.72
2023-02-12T22:37:45.054Z,6.72
2023-02-12T22:40:16.527Z,5.72
2023-02-12T22:42:46.691Z,5.78
2023-02-12T22:45:16.737Z,5.93
2023-02-12T22:47:46.673Z,5.15
2023-02-12T22:50:16.631Z,5.88
2023-02-12T22:52:49.212Z,5.68
2023-02-12T22:55:19.319Z,5.97
2023-02-12T22:57:49.472Z,5.80
2023-02-12T23:00:21.197Z,6.10
2023-02-12T23:02:51.184Z,5.70
2023-02-12T23:05:21.398Z,6.13
2023-02-12T23:07:54.010Z,6.47
2023-02-12T23:10:23.973Z,6.45
2023-02-12T23:12:53.907Z,5.53
2023-02-12T23:15:24.129Z,5.82
2023-02-12T23:17:54.237Z,6.72
2023-02-12T23:20:24.135Z,5.95
2023-02-12T23:22:56.589Z,6.43
2023-02-12T23:25:26.503Z,6.68
2023-02-12T23:27:56.364Z,7.53
2023-02-12T23:30:26.553Z,7.97
2023-02-12T23:32:56.721Z,8.00
2023-02-12T23:35:26.652Z,8.68
2023-02-12T23:37:59.199Z,8.40
2023-02-12T23:40:29.149Z,9.05
2023-02-12T23:42:59.090Z,8.43
2023-02-12T23:45:29.149Z,8.38
2023-02-12T23:47:59.053Z,7.82
2023-02-12T23:50:29.569Z,8.05
2023-02-12T23:53:02.538Z,7.60
2023-02-12T23:55:32.493Z,8.18
2023-02-12T23:58:04.483Z,8.57
